Ivanhoe, New York
Current Conditions -  °F | °C
As of 4:53 AM on Thursday 29 Jan 2015 (Local Time) from KBGM Reporting Station
Clear Clear  
Wind Chill:   Ceiling: Unl
Heat Index:   Visibility: 10mi
Dew Point:   Wind: 5mph
Humidity: 84%   Direction: 200°SSW
Pressure: 30.21"   Gusts: NA
Location:  42.2309°N, 75.2943°W
Report Text: KBGM 290953Z AUTO 20004KT 10SM CLR M13/M15 A3021 RMK AO2 SLP261 T11281150
Loading
Personal Weather Stations






























Interactive Weather Map New forecast layout! Learn more

10-Day Weather Forecast

Advertisements
Track Severe Weather on mobile